createdAt,value
2023-04-02T00:01:27.754Z,10.43
2023-04-02T00:04:16.204Z,10.43
2023-04-02T00:06:47.140Z,10.37
2023-04-02T00:09:32.130Z,10.32
2023-04-02T00:12:15.377Z,10.29
2023-04-02T00:14:48.523Z,10.28
2023-04-02T00:17:17.782Z,10.26
2023-04-02T00:19:51.140Z,10.26
2023-04-02T00:22:20.598Z,10.23
2023-04-02T00:24:52.829Z,10.20
2023-04-02T00:27:20.930Z,10.17
2023-04-02T00:29:50.160Z,10.13
2023-04-02T00:32:23.302Z,10.12
2023-04-02T00:34:51.574Z,10.11
2023-04-02T00:37:28.024Z,10.10
2023-04-02T00:40:01.649Z,10.07
2023-04-02T00:42:31.581Z,10.08
2023-04-02T00:44:59.673Z,10.08
2023-04-02T00:47:34.237Z,10.09
2023-04-02T00:50:08.834Z,10.09
2023-04-02T00:52:37.113Z,10.11
2023-04-02T00:55:10.424Z,10.13
2023-04-02T00:57:38.611Z,10.14
2023-04-02T01:00:20.663Z,10.14
2023-04-02T01:03:22.905Z,10.13
2023-04-02T01:06:01.614Z,10.12
2023-04-02T01:08:41.136Z,10.10
2023-04-02T01:11:19.395Z,10.09
2023-04-02T01:13:58.049Z,10.07
2023-04-02T01:16:36.447Z,10.05
2023-04-02T01:19:18.296Z,10.02
2023-04-02T01:21:58.793Z,10.03
2023-04-02T01:24:32.451Z,10.05
2023-04-02T01:27:02.275Z,10.07
2023-04-02T01:29:34.080Z,10.10
2023-04-02T01:32:05.212Z,10.11
2023-04-02T01:34:33.717Z,10.08
2023-04-02T01:37:23.042Z,10.08
2023-04-02T01:40:05.670Z,10.09
2023-04-02T01:42:41.934Z,10.06
2023-04-02T01:45:14.749Z,10.04
2023-04-02T01:47:43.799Z,10.03
2023-04-02T01:50:23.589Z,10.01
2023-04-02T01:52:53.468Z,10.01
2023-04-02T01:55:31.199Z,10.00
2023-04-02T01:58:01.351Z,10.01
2023-04-02T02:00:32.961Z,10.02
2023-04-02T02:03:03.426Z,10.02
2023-04-02T02:05:31.344Z,10.05
2023-04-02T02:08:01.341Z,10.05
2023-04-02T02:10:35.167Z,10.04
2023-04-02T02:13:03.317Z,10.06
2023-04-02T02:15:34.895Z,10.05
2023-04-02T02:18:06.599Z,10.06
2023-04-02T02:20:36.094Z,10.05
2023-04-02T02:23:05.459Z,10.01
2023-04-02T02:25:34.989Z,10.01
2023-04-02T02:28:09.335Z,9.99
2023-04-02T02:30:42.908Z,9.97
2023-04-02T02:33:17.319Z,9.96
2023-04-02T02:35:51.205Z,9.93
2023-04-02T02:38:43.737Z,9.91
2023-04-02T02:41:19.657Z,9.91
2023-04-02T02:43:57.435Z,9.89
2023-04-02T02:46:28.548Z,9.88
2023-04-02T02:48:58.694Z,9.86
2023-04-02T02:51:29.640Z,9.86
2023-04-02T02:54:03.544Z,9.86
2023-04-02T02:56:33.522Z,9.83
2023-04-02T02:59:02.272Z,9.84
2023-04-02T03:01:33.393Z,9.80
2023-04-02T03:04:02.008Z,9.80
2023-04-02T03:06:29.800Z,9.77
2023-04-02T03:09:04.932Z,9.78
2023-04-02T03:11:39.724Z,9.75
2023-04-02T03:14:15.896Z,9.74
2023-04-02T03:16:48.311Z,9.68
2023-04-02T03:19:26.817Z,9.68
2023-04-02T03:22:03.026Z,9.65
2023-04-02T03:24:37.836Z,9.63
2023-04-02T03:27:14.800Z,9.66
2023-04-02T03:29:49.452Z,9.65
2023-04-02T03:32:24.053Z,9.64
2023-04-02T03:34:56.456Z,9.64
2023-04-02T03:37:29.574Z,9.64
2023-04-02T03:40:01.492Z,9.63
2023-04-02T03:42:38.235Z,9.62
2023-04-02T03:45:14.191Z,9.60
2023-04-02T03:47:47.701Z,9.60
2023-04-02T03:50:22.026Z,9.60
2023-04-02T03:52:50.172Z,9.59
2023-04-02T03:55:22.812Z,9.54
2023-04-02T03:58:00.751Z,9.54
2023-04-02T04:00:36.281Z,9.55
2023-04-02T04:03:11.481Z,9.52
2023-04-02T04:05:48.401Z,9.51
2023-04-02T04:08:19.673Z,9.52
2023-04-02T04:10:53.185Z,9.49
2023-04-02T04:13:32.386Z,9.48
2023-04-02T04:16:03.807Z,9.45
2023-04-02T04:18:37.925Z,9.46
2023-04-02T04:21:13.265Z,9.43
2023-04-02T04:23:50.626Z,9.42
2023-04-02T04:26:24.633Z,9.43
2023-04-02T04:29:05.531Z,9.43
2023-04-02T04:31:39.834Z,9.45
2023-04-02T04:34:16.144Z,9.43
2023-04-02T04:36:48.160Z,9.41
2023-04-02T04:39:23.850Z,9.40
2023-04-02T04:41:52.873Z,9.40
2023-04-02T04:44:24.435Z,9.37
2023-04-02T04:46:58.771Z,9.39
2023-04-02T04:49:33.776Z,9.38
2023-04-02T04:52:09.337Z,9.36
2023-04-02T04:54:40.093Z,9.33
2023-04-02T04:57:22.696Z,9.35
2023-04-02T04:59:58.579Z,9.37
2023-04-02T05:02:31.154Z,9.36
2023-04-02T05:05:01.610Z,9.35
2023-04-02T05:07:31.824Z,9.34
2023-04-02T05:10:05.296Z,9.34
2023-04-02T05:12:38.050Z,9.35
2023-04-02T05:15:11.586Z,9.37
2023-04-02T05:17:46.797Z,9.38
2023-04-02T05:20:22.490Z,9.41
2023-04-02T05:22:54.173Z,9.43
2023-04-02T05:25:25.931Z,9.43
2023-04-02T05:28:00.573Z,9.43
2023-04-02T05:30:46.652Z,9.44
2023-04-02T05:33:33.949Z,9.46
2023-04-02T05:36:06.017Z,9.46
2023-04-02T05:38:36.058Z,9.49
2023-04-02T05:41:08.580Z,9.49
2023-04-02T05:43:41.391Z,9.51
2023-04-02T05:46:16.403Z,9.55
2023-04-02T05:48:49.363Z,9.52
2023-04-02T05:51:23.011Z,9.51
2023-04-02T05:53:56.106Z,9.50
2023-04-02T05:56:29.131Z,9.50
2023-04-02T05:59:07.598Z,9.48
2023-04-02T06:01:43.067Z,9.45
2023-04-02T06:04:21.630Z,9.47
2023-04-02T06:07:03.430Z,9.52
2023-04-02T06:09:40.721Z,9.54
2023-04-02T06:12:19.113Z,9.55
2023-04-02T06:14:47.240Z,9.57
2023-04-02T06:17:17.344Z,9.62
2023-04-02T06:19:45.841Z,9.63
2023-04-02T06:22:24.745Z,9.64
2023-04-02T06:24:57.408Z,9.69
2023-04-02T06:27:27.617Z,9.73
2023-04-02T06:30:02.109Z,9.72
2023-04-02T06:32:29.906Z,9.75
2023-04-02T06:34:58.329Z,9.78
2023-04-02T06:37:32.983Z,9.80
2023-04-02T06:40:01.774Z,9.86
2023-04-02T06:42:33.992Z,9.91
2023-04-02T06:45:02.084Z,9.98
2023-04-02T06:47:35.096Z,10.02
2023-04-02T06:50:09.118Z,10.06
2023-04-02T06:52:44.321Z,10.13
2023-04-02T06:55:29.912Z,10.12
2023-04-02T06:57:57.856Z,10.13
2023-04-02T07:00:31.525Z,10.17
2023-04-02T07:03:02.580Z,10.15
2023-04-02T07:05:30.644Z,10.18
2023-04-02T07:07:59.877Z,10.14
2023-04-02T07:10:27.615Z,10.14
2023-04-02T07:12:55.424Z,10.17
2023-04-02T07:15:25.472Z,10.21
2023-04-02T07:17:54.749Z,10.21
2023-04-02T07:20:28.837Z,10.20
2023-04-02T07:22:57.377Z,10.21
2023-04-02T07:25:27.843Z,10.24
2023-04-02T07:27:56.106Z,10.28
2023-04-02T07:30:24.386Z,10.31
2023-04-02T07:32:52.208Z,10.36
2023-04-02T07:35:19.972Z,10.41
2023-04-02T07:37:47.609Z,10.44
2023-04-02T07:40:18.945Z,10.47
2023-04-02T07:42:48.003Z,10.48
2023-04-02T07:45:16.126Z,10.53
2023-04-02T07:47:44.939Z,10.57
2023-04-02T07:50:13.442Z,10.64
2023-04-02T07:52:42.149Z,10.69
2023-04-02T07:55:12.572Z,10.74
2023-04-02T07:57:43.671Z,10.76
2023-04-02T08:00:15.479Z,10.74
2023-04-02T08:02:43.265Z,10.76
2023-04-02T08:05:11.634Z,10.76
2023-04-02T08:07:40.067Z,10.75
2023-04-02T08:10:09.949Z,10.78
2023-04-02T08:12:38.095Z,10.75
2023-04-02T08:15:08.030Z,10.71
2023-04-02T08:17:37.054Z,10.71
2023-04-02T08:20:09.134Z,10.72
2023-04-02T08:22:36.815Z,10.75
2023-04-02T08:25:04.763Z,10.79
2023-04-02T08:27:32.468Z,10.85
2023-04-02T08:30:00.148Z,10.90
2023-04-02T08:32:29.129Z,10.95
2023-04-02T08:34:58.256Z,11.02
2023-04-02T08:37:25.995Z,11.03
2023-04-02T08:39:53.771Z,11.04
2023-04-02T08:42:30.968Z,11.03
2023-04-02T08:45:23.618Z,11.07
2023-04-02T08:47:57.381Z,11.16
2023-04-02T08:50:32.791Z,11.18
2023-04-02T08:53:03.185Z,11.23
2023-04-02T08:55:37.518Z,11.25
2023-04-02T08:58:18.676Z,11.25
2023-04-02T09:00:49.899Z,11.27
2023-04-02T09:03:20.671Z,11.35
2023-04-02T09:05:52.646Z,11.41
2023-04-02T09:08:24.484Z,11.42
2023-04-02T09:10:59.254Z,11.48
2023-04-02T09:13:28.698Z,11.56
2023-04-02T09:16:02.195Z,11.60
2023-04-02T09:18:34.056Z,11.69
2023-04-02T09:21:09.898Z,11.72
2023-04-02T09:23:37.578Z,11.79
2023-04-02T09:26:22.864Z,11.86
2023-04-02T09:28:52.749Z,11.86
2023-04-02T09:31:27.868Z,11.84
2023-04-02T09:33:55.616Z,11.84
2023-04-02T09:36:38.602Z,11.82
2023-04-02T09:39:08.265Z,11.80
2023-04-02T09:41:37.433Z,11.83
2023-04-02T09:44:31.182Z,11.87
2023-04-02T09:47:03.989Z,11.74
2023-04-02T09:49:34.048Z,11.45
2023-04-02T09:52:21.024Z,11.21
2023-04-02T09:55:06.290Z,11.02
2023-04-02T09:57:34.170Z,10.67
2023-04-02T10:00:21.851Z,10.48
2023-04-02T10:03:05.292Z,10.20
2023-04-02T10:05:39.966Z,10.06
2023-04-02T10:08:19.816Z,10.05
2023-04-02T10:10:51.720Z,9.89
2023-04-02T10:13:26.300Z,9.82
2023-04-02T10:16:00.046Z,9.68
2023-04-02T10:18:39.980Z,9.55
2023-04-02T10:21:09.210Z,9.35
2023-04-02T10:23:38.360Z,9.32
2023-04-02T10:26:21.231Z,9.28
2023-04-02T10:29:06.954Z,9.16
2023-04-02T10:31:41.578Z,9.18
2023-04-02T10:34:18.281Z,9.17
2023-04-02T10:36:51.955Z,9.15
2023-04-02T10:39:25.537Z,9.12
2023-04-02T10:41:57.789Z,9.09
2023-04-02T10:44:41.998Z,9.06
2023-04-02T10:47:18.928Z,9.00
2023-04-02T10:49:56.053Z,8.92
2023-04-02T10:52:30.336Z,8.84
2023-04-02T10:55:03.848Z,8.82
2023-04-02T10:57:38.019Z,8.82
2023-04-02T11:00:19.572Z,8.81
2023-04-02T11:02:52.199Z,8.71
2023-04-02T11:05:26.656Z,8.69
2023-04-02T11:07:59.184Z,8.64
2023-04-02T11:10:33.818Z,8.64
2023-04-02T11:13:08.235Z,8.70
2023-04-02T11:15:37.495Z,8.72
2023-04-02T11:18:05.639Z,8.69
2023-04-02T11:21:00.885Z,8.67
2023-04-02T11:23:32.674Z,8.73
2023-04-02T11:26:41.441Z,8.74
2023-04-02T11:29:23.242Z,8.73
2023-04-02T11:31:52.773Z,8.74
2023-04-02T11:35:05.968Z,8.74
2023-04-02T11:37:38.233Z,8.77
2023-04-02T11:40:53.035Z,8.75
2023-04-02T11:43:51.668Z,8.77
2023-04-02T11:46:39.697Z,8.83
2023-04-02T11:49:36.925Z,8.84
2023-04-02T11:52:12.263Z,8.83
2023-04-02T11:54:41.607Z,8.81
2023-04-02T11:57:22.640Z,8.87
2023-04-02T12:00:08.711Z,8.85
2023-04-02T12:02:49.916Z,8.83
2023-04-02T12:05:26.613Z,8.77
2023-04-02T12:08:08.936Z,8.72
2023-04-02T12:10:54.822Z,8.67
2023-04-02T12:13:50.029Z,8.74
2023-04-02T12:16:20.563Z,8.77
2023-04-02T12:18:53.963Z,8.82
2023-04-02T12:21:24.388Z,8.84
2023-04-02T12:23:55.516Z,8.88
2023-04-02T12:26:32.030Z,8.89
2023-04-02T12:29:25.650Z,8.91
2023-04-02T12:31:56.051Z,8.92
2023-04-02T12:34:26.133Z,8.85
2023-04-02T12:36:55.894Z,8.87
2023-04-02T12:39:25.978Z,8.89
2023-04-02T12:41:56.053Z,8.94
2023-04-02T12:44:25.727Z,9.01
2023-04-02T12:46:56.121Z,8.92
2023-04-02T12:49:36.890Z,8.92
2023-04-02T12:52:07.076Z,8.82
2023-04-02T12:54:39.241Z,8.81
2023-04-02T12:57:29.624Z,8.82
2023-04-02T12:59:58.687Z,8.88
2023-04-02T13:02:29.982Z,8.87
2023-04-02T13:05:00.923Z,8.81
2023-04-02T13:07:31.139Z,8.82
2023-04-02T13:10:00.983Z,8.74
2023-04-02T13:12:33.773Z,8.74
2023-04-02T13:15:03.199Z,8.71
2023-04-02T13:17:43.971Z,8.67
2023-04-02T13:20:35.727Z,8.64
2023-04-02T13:23:24.598Z,8.64
2023-04-02T13:25:53.043Z,8.68
2023-04-02T13:28:21.128Z,8.73
2023-04-02T13:30:49.312Z,8.69
2023-04-02T13:33:19.122Z,8.65
2023-04-02T13:35:46.993Z,8.63
2023-04-02T13:38:14.941Z,8.60
2023-04-02T13:40:42.771Z,8.48
2023-04-02T13:43:18.333Z,8.45
2023-04-02T13:45:49.820Z,8.43
2023-04-02T13:48:19.180Z,8.43
2023-04-02T13:50:47.362Z,8.42
2023-04-02T13:53:23.124Z,8.36
2023-04-02T13:55:52.090Z,8.38
2023-04-02T13:58:20.077Z,8.27
2023-04-02T14:00:48.298Z,8.25
2023-04-02T14:03:22.067Z,8.25
2023-04-02T14:05:58.655Z,8.31
2023-04-02T14:08:41.341Z,8.29
2023-04-02T14:11:24.930Z,8.30
2023-04-02T14:14:14.077Z,8.29
2023-04-02T14:16:56.805Z,8.20
2023-04-02T14:19:50.969Z,8.15
2023-04-02T14:22:32.498Z,8.11
2023-04-02T14:25:10.012Z,8.09
2023-04-02T14:27:46.706Z,8.06
2023-04-02T14:30:23.018Z,7.99
2023-04-02T14:33:01.818Z,7.93
2023-04-02T14:35:36.511Z,7.96
2023-04-02T14:38:14.124Z,7.93
2023-04-02T14:40:49.440Z,7.91
2023-04-02T14:43:23.491Z,7.91
2023-04-02T14:46:01.683Z,7.83
2023-04-02T14:48:46.191Z,7.80
2023-04-02T14:51:21.362Z,7.75
2023-04-02T14:53:55.738Z,7.76
2023-04-02T14:56:25.679Z,7.72
2023-04-02T14:59:03.542Z,7.65
2023-04-02T15:01:37.262Z,7.65
2023-04-02T15:04:13.068Z,7.70
2023-04-02T15:06:45.672Z,7.74
2023-04-02T15:09:19.044Z,7.73
2023-04-02T15:11:51.444Z,7.75
2023-04-02T15:14:22.608Z,7.74
2023-04-02T15:16:51.902Z,7.79
2023-04-02T15:19:21.870Z,7.74
2023-04-02T15:22:09.862Z,7.67
2023-04-02T15:24:45.021Z,7.63
2023-04-02T15:27:29.248Z,7.58
2023-04-02T15:30:03.913Z,7.61
2023-04-02T15:32:37.944Z,7.55
2023-04-02T15:35:20.310Z,7.52
2023-04-02T15:38:00.771Z,7.46
2023-04-02T15:40:40.179Z,7.42
2023-04-02T15:43:17.634Z,7.41
2023-04-02T15:45:52.471Z,7.37
2023-04-02T15:48:35.510Z,7.34
2023-04-02T15:51:17.718Z,7.33
2023-04-02T15:53:56.873Z,7.28
2023-04-02T15:56:31.410Z,7.29
2023-04-02T15:59:15.951Z,7.28
2023-04-02T16:01:55.094Z,7.25
2023-04-02T16:04:41.387Z,7.20
2023-04-02T16:07:30.320Z,7.18
2023-04-02T16:10:08.535Z,7.14
2023-04-02T16:12:38.234Z,7.15
2023-04-02T16:15:15.829Z,7.09
2023-04-02T16:17:47.581Z,7.06
2023-04-02T16:20:23.864Z,7.05
2023-04-02T16:23:00.953Z,7.07
2023-04-02T16:25:37.229Z,7.06
2023-04-02T16:28:15.530Z,7.12
2023-04-02T16:30:51.964Z,7.07
2023-04-02T16:33:41.505Z,6.97
2023-04-02T16:36:24.310Z,6.96
2023-04-02T16:39:01.001Z,6.90
2023-04-02T16:41:45.935Z,6.92
2023-04-02T16:44:25.901Z,6.88
2023-04-02T16:47:03.683Z,6.85
2023-04-02T16:49:37.425Z,6.89
2023-04-02T16:52:21.731Z,6.83
2023-04-02T16:55:02.374Z,6.84
2023-04-02T16:57:43.655Z,6.80
2023-04-02T17:00:21.932Z,6.85
2023-04-02T17:03:04.975Z,6.75
2023-04-02T17:05:33.442Z,6.80
2023-04-02T17:08:18.279Z,6.71
2023-04-02T17:10:52.631Z,6.67
2023-04-02T17:13:28.043Z,6.62
2023-04-02T17:16:04.668Z,6.53
2023-04-02T17:18:34.171Z,6.52
2023-04-02T17:21:06.577Z,6.60
2023-04-02T17:23:55.245Z,6.50
2023-04-02T17:26:27.128Z,6.47
2023-04-02T17:28:58.503Z,6.48
2023-04-02T17:31:30.744Z,6.48
2023-04-02T17:33:58.659Z,6.48
2023-04-02T17:36:40.930Z,6.44
2023-04-02T17:39:21.277Z,6.39
2023-04-02T17:41:53.569Z,6.30
2023-04-02T17:44:35.942Z,6.33
2023-04-02T17:47:12.655Z,6.31
2023-04-02T17:49:49.753Z,6.31
2023-04-02T17:52:24.463Z,6.32
2023-04-02T17:55:03.198Z,6.31
2023-04-02T17:57:46.148Z,6.34
2023-04-02T18:00:26.625Z,6.32
2023-04-02T18:03:07.520Z,6.26
2023-04-02T18:05:40.067Z,6.28
2023-04-02T18:08:18.802Z,6.27
2023-04-02T18:11:00.223Z,6.28
2023-04-02T18:13:34.905Z,6.26
2023-04-02T18:16:17.561Z,6.25
2023-04-02T18:19:10.112Z,6.23
2023-04-02T18:21:44.285Z,6.27
2023-04-02T18:24:29.207Z,6.16
2023-04-02T18:27:10.209Z,6.15
2023-04-02T18:29:44.578Z,6.14
2023-04-02T18:32:35.571Z,6.14
2023-04-02T18:35:14.037Z,6.14
2023-04-02T18:37:57.564Z,6.09
2023-04-02T18:40:43.263Z,6.08
2023-04-02T18:43:26.668Z,6.12
2023-04-02T18:45:59.901Z,6.10
2023-04-02T18:48:42.069Z,6.11
2023-04-02T18:51:16.815Z,6.08
2023-04-02T18:53:45.389Z,6.08
2023-04-02T18:56:17.050Z,6.05
2023-04-02T18:58:56.833Z,6.01
2023-04-02T19:01:29.013Z,6.06
2023-04-02T19:04:03.796Z,6.05
2023-04-02T19:06:37.360Z,6.08
2023-04-02T19:09:12.732Z,6.08
2023-04-02T19:11:40.513Z,6.07
2023-04-02T19:14:13.517Z,6.07
2023-04-02T19:16:58.809Z,6.04
2023-04-02T19:19:30.883Z,6.04
2023-04-02T19:22:23.747Z,6.01
2023-04-02T19:25:08.775Z,5.97
2023-04-02T19:27:51.314Z,5.94
2023-04-02T19:30:39.997Z,5.89
2023-04-02T19:33:21.136Z,5.91
2023-04-02T19:35:56.816Z,5.88
2023-04-02T19:38:44.815Z,5.85
2023-04-02T19:41:19.629Z,5.85
2023-04-02T19:43:47.466Z,5.86
2023-04-02T19:46:15.615Z,5.82
2023-04-02T19:48:51.891Z,5.83
2023-04-02T19:51:21.398Z,5.82
2023-04-02T19:53:49.080Z,5.82
2023-04-02T19:56:16.883Z,5.83
2023-04-02T19:58:44.607Z,5.83
2023-04-02T20:01:12.294Z,5.79
2023-04-02T20:03:40.071Z,5.83
2023-04-02T20:06:07.789Z,5.83
2023-04-02T20:08:37.134Z,5.84
2023-04-02T20:11:05.091Z,5.78
2023-04-02T20:13:32.854Z,5.77
2023-04-02T20:16:01.728Z,5.78
2023-04-02T20:18:30.124Z,5.79
2023-04-02T20:20:58.026Z,5.73
2023-04-02T20:23:25.902Z,5.75
2023-04-02T20:25:57.713Z,5.75
2023-04-02T20:28:27.075Z,5.73
2023-04-02T20:30:54.933Z,5.76
2023-04-02T20:33:24.993Z,5.70
2023-04-02T20:35:54.603Z,5.68
2023-04-02T20:38:22.305Z,5.68
2023-04-02T20:40:52.960Z,5.69
2023-04-02T20:43:22.571Z,5.68
2023-04-02T20:45:57.454Z,5.72
2023-04-02T20:48:27.445Z,5.72
2023-04-02T20:50:55.523Z,5.76
2023-04-02T20:53:23.387Z,5.77
2023-04-02T20:55:51.122Z,5.77
2023-04-02T20:58:20.254Z,5.70
2023-04-02T21:00:49.262Z,5.74
2023-04-02T21:03:16.995Z,5.72
2023-04-02T21:05:45.410Z,5.71
2023-04-02T21:08:13.552Z,5.73
2023-04-02T21:10:41.720Z,5.73
2023-04-02T21:13:09.338Z,5.72
2023-04-02T21:15:42.978Z,5.73
2023-04-02T21:18:12.167Z,5.74
2023-04-02T21:20:39.894Z,5.75
2023-04-02T21:23:07.573Z,5.75
2023-04-02T21:25:35.530Z,5.72
2023-04-02T21:28:03.840Z,5.72
2023-04-02T21:30:33.007Z,5.67
2023-04-02T21:33:00.926Z,5.68
2023-04-02T21:35:29.959Z,5.67
2023-04-02T21:37:57.631Z,5.61
2023-04-02T21:40:25.300Z,5.63
2023-04-02T21:42:52.942Z,5.64
2023-04-02T21:45:20.672Z,5.66
2023-04-02T21:47:48.439Z,5.65
2023-04-02T21:50:16.244Z,5.59
2023-04-02T21:52:45.279Z,5.65
2023-04-02T21:55:12.979Z,5.57
2023-04-02T21:57:40.777Z,5.54
2023-04-02T22:00:12.340Z,5.55
2023-04-02T22:02:40.409Z,5.59
2023-04-02T22:05:08.825Z,5.54
2023-04-02T22:07:36.570Z,5.55
2023-04-02T22:10:06.099Z,5.54
2023-04-02T22:12:33.775Z,5.54
2023-04-02T22:15:01.483Z,5.54
2023-04-02T22:17:29.140Z,5.51
2023-04-02T22:19:56.978Z,5.53
2023-04-02T22:22:25.220Z,5.53
2023-04-02T22:24:52.873Z,5.51
2023-04-02T22:27:21.859Z,5.53
2023-04-02T22:29:49.492Z,5.55
2023-04-02T22:32:17.215Z,5.54
2023-04-02T22:34:45.761Z,5.52
2023-04-02T22:37:13.546Z,5.55
2023-04-02T22:39:41.288Z,5.55
2023-04-02T22:42:08.895Z,5.54
2023-04-02T22:44:37.964Z,5.54
2023-04-02T22:47:05.674Z,5.52
2023-04-02T22:49:33.338Z,5.50
2023-04-02T22:52:01.528Z,5.53
2023-04-02T22:54:29.268Z,5.52
2023-04-02T22:56:56.967Z,5.51
2023-04-02T22:59:24.685Z,5.54
2023-04-02T23:01:53.748Z,5.46
2023-04-02T23:04:21.769Z,5.50
2023-04-02T23:06:49.527Z,5.41
2023-04-02T23:09:17.286Z,5.44
2023-04-02T23:11:45.361Z,5.43
2023-04-02T23:14:13.089Z,5.37
2023-04-02T23:16:40.827Z,5.37
2023-04-02T23:19:10.160Z,5.35
2023-04-02T23:21:37.860Z,5.34
2023-04-02T23:24:05.836Z,5.34
2023-04-02T23:26:33.699Z,5.31
2023-04-02T23:29:02.355Z,5.26
2023-04-02T23:31:33.496Z,5.23
2023-04-02T23:34:02.819Z,5.20
2023-04-02T23:36:33.306Z,5.17
2023-04-02T23:39:03.202Z,5.14
2023-04-02T23:41:32.022Z,5.11
2023-04-02T23:44:00.348Z,5.09
2023-04-02T23:46:29.063Z,5.04
2023-04-02T23:48:57.236Z,5.02
2023-04-02T23:51:25.912Z,4.96
2023-04-02T23:53:56.555Z,4.89
2023-04-02T23:56:24.718Z,4.86
2023-04-02T23:58:52.831Z,4.83
